sensor_id;sensor_type;location;lat;lon;timestamp;P1;durP1;ratioP1;P2;durP2;ratioP2
3597;SDS011;1813;52.016;8.714;2023-04-06T00:00:45;15.03;;;9.67;;
3597;SDS011;1813;52.016;8.714;2023-04-06T00:03:19;17.93;;;10.33;;
3597;SDS011;1813;52.016;8.714;2023-04-06T00:05:53;19.70;;;10.47;;
3597;SDS011;1813;52.016;8.714;2023-04-06T00:08:29;14.10;;;9.97;;
3597;SDS011;1813;52.016;8.714;2023-04-06T00:11:03;15.70;;;10.33;;
3597;SDS011;1813;52.016;8.714;2023-04-06T00:13:37;16.97;;;10.60;;
3597;SDS011;1813;52.016;8.714;2023-04-06T00:16:11;15.07;;;10.43;;
3597;SDS011;1813;52.016;8.714;2023-04-06T00:18:45;17.80;;;10.07;;
3597;SDS011;1813;52.016;8.714;2023-04-06T00:21:19;16.57;;;10.50;;
3597;SDS011;1813;52.016;8.714;2023-04-06T00:23:55;13.60;;;9.10;;
3597;SDS011;1813;52.016;8.714;2023-04-06T00:26:30;16.40;;;10.50;;
3597;SDS011;1813;52.016;8.714;2023-04-06T00:29:04;17.30;;;9.90;;
3597;SDS011;1813;52.016;8.714;2023-04-06T00:31:38;19.87;;;10.23;;
3597;SDS011;1813;52.016;8.714;2023-04-06T00:34:12;14.67;;;10.30;;
3597;SDS011;1813;52.016;8.714;2023-04-06T00:36:46;15.80;;;10.40;;
3597;SDS011;1813;52.016;8.714;2023-04-06T00:39:23;12.50;;;9.50;;
3597;SDS011;1813;52.016;8.714;2023-04-06T00:41:57;15.50;;;10.27;;
3597;SDS011;1813;52.016;8.714;2023-04-06T00:44:31;14.67;;;9.13;;
3597;SDS011;1813;52.016;8.714;2023-04-06T00:47:05;15.10;;;10.10;;
3597;SDS011;1813;52.016;8.714;2023-04-06T00:49:39;27.90;;;10.67;;
3597;SDS011;1813;52.016;8.714;2023-04-06T00:52:13;14.37;;;10.37;;
3597;SDS011;1813;52.016;8.714;2023-04-06T00:54:53;14.07;;;10.20;;
3597;SDS011;1813;52.016;8.714;2023-04-06T00:57:27;16.47;;;11.00;;
3597;SDS011;1813;52.016;8.714;2023-04-06T01:00:02;16.47;;;10.20;;
3597;SDS011;1813;52.016;8.714;2023-04-06T01:02:37;15.00;;;10.27;;
3597;SDS011;1813;52.016;8.714;2023-04-06T01:05:13;14.90;;;10.70;;
3597;SDS011;1813;52.016;8.714;2023-04-06T01:07:54;17.47;;;11.40;;
3597;SDS011;1813;52.016;8.714;2023-04-06T01:10:34;13.10;;;10.07;;
3597;SDS011;1813;52.016;8.714;2023-04-06T01:13:27;14.60;;;10.90;;
3597;SDS011;1813;52.016;8.714;2023-04-06T01:16:05;19.80;;;10.40;;
3597;SDS011;1813;52.016;8.714;2023-04-06T01:18:51;15.17;;;11.37;;
3597;SDS011;1813;52.016;8.714;2023-04-06T01:21:33;14.37;;;9.63;;
3597;SDS011;1813;52.016;8.714;2023-04-06T01:24:28;16.97;;;10.37;;
3597;SDS011;1813;52.016;8.714;2023-04-06T01:27:13;14.37;;;10.40;;
3597;SDS011;1813;52.016;8.714;2023-04-06T01:30:16;16.53;;;10.93;;
3597;SDS011;1813;52.016;8.714;2023-04-06T01:33:03;17.50;;;10.23;;
3597;SDS011;1813;52.016;8.714;2023-04-06T01:35:47;14.70;;;10.03;;
3597;SDS011;1813;52.016;8.714;2023-04-06T01:38:24;14.23;;;10.20;;
3597;SDS011;1813;52.016;8.714;2023-04-06T01:41:00;16.17;;;10.50;;
3597;SDS011;1813;52.016;8.714;2023-04-06T01:43:42;17.80;;;10.60;;
3597;SDS011;1813;52.016;8.714;2023-04-06T01:46:16;13.93;;;10.30;;
3597;SDS011;1813;52.016;8.714;2023-04-06T01:48:50;15.43;;;10.40;;
3597;SDS011;1813;52.016;8.714;2023-04-06T01:51:39;16.13;;;11.07;;
3597;SDS011;1813;52.016;8.714;2023-04-06T01:54:16;14.63;;;10.33;;
3597;SDS011;1813;52.016;8.714;2023-04-06T01:57:31;19.40;;;10.43;;
3597;SDS011;1813;52.016;8.714;2023-04-06T02:00:16;17.47;;;10.10;;
3597;SDS011;1813;52.016;8.714;2023-04-06T02:02:56;13.10;;;9.80;;
3597;SDS011;1813;52.016;8.714;2023-04-06T02:05:33;14.97;;;10.17;;
3597;SDS011;1813;52.016;8.714;2023-04-06T02:08:17;16.07;;;10.97;;
3597;SDS011;1813;52.016;8.714;2023-04-06T02:10:51;15.93;;;9.97;;
3597;SDS011;1813;52.016;8.714;2023-04-06T02:13:38;14.17;;;10.70;;
3597;SDS011;1813;52.016;8.714;2023-04-06T02:16:13;17.50;;;11.13;;
3597;SDS011;1813;52.016;8.714;2023-04-06T02:18:49;14.00;;;10.53;;
3597;SDS011;1813;52.016;8.714;2023-04-06T02:21:24;18.63;;;10.27;;
3597;SDS011;1813;52.016;8.714;2023-04-06T02:23:57;18.23;;;11.33;;
3597;SDS011;1813;52.016;8.714;2023-04-06T02:26:31;22.10;;;10.40;;
3597;SDS011;1813;52.016;8.714;2023-04-06T02:29:08;15.83;;;10.00;;
3597;SDS011;1813;52.016;8.714;2023-04-06T02:31:42;12.97;;;9.70;;
3597;SDS011;1813;52.016;8.714;2023-04-06T02:34:16;14.47;;;10.23;;
3597;SDS011;1813;52.016;8.714;2023-04-06T02:36:54;16.50;;;11.30;;
3597;SDS011;1813;52.016;8.714;2023-04-06T02:39:31;15.53;;;10.87;;
3597;SDS011;1813;52.016;8.714;2023-04-06T02:42:07;18.70;;;11.33;;
3597;SDS011;1813;52.016;8.714;2023-04-06T02:44:44;16.63;;;11.10;;
3597;SDS011;1813;52.016;8.714;2023-04-06T02:47:19;15.63;;;10.67;;
3597;SDS011;1813;52.016;8.714;2023-04-06T02:49:55;17.20;;;11.83;;
3597;SDS011;1813;52.016;8.714;2023-04-06T02:52:29;16.50;;;11.13;;
3597;SDS011;1813;52.016;8.714;2023-04-06T02:55:03;14.23;;;10.90;;
3597;SDS011;1813;52.016;8.714;2023-04-06T02:57:38;23.87;;;12.17;;
3597;SDS011;1813;52.016;8.714;2023-04-06T03:00:15;17.67;;;11.73;;
3597;SDS011;1813;52.016;8.714;2023-04-06T03:02:50;16.43;;;10.73;;
3597;SDS011;1813;52.016;8.714;2023-04-06T03:05:23;17.17;;;11.40;;
3597;SDS011;1813;52.016;8.714;2023-04-06T03:07:57;19.00;;;11.70;;
3597;SDS011;1813;52.016;8.714;2023-04-06T03:10:41;17.83;;;11.87;;
3597;SDS011;1813;52.016;8.714;2023-04-06T03:13:16;17.87;;;13.20;;
3597;SDS011;1813;52.016;8.714;2023-04-06T03:16:02;21.23;;;15.30;;
3597;SDS011;1813;52.016;8.714;2023-04-06T03:18:37;16.87;;;12.13;;
3597;SDS011;1813;52.016;8.714;2023-04-06T03:21:10;18.40;;;12.80;;
3597;SDS011;1813;52.016;8.714;2023-04-06T03:23:52;15.70;;;11.40;;
3597;SDS011;1813;52.016;8.714;2023-04-06T03:26:26;14.23;;;10.50;;
3597;SDS011;1813;52.016;8.714;2023-04-06T03:29:02;16.80;;;11.90;;
3597;SDS011;1813;52.016;8.714;2023-04-06T03:31:38;19.73;;;11.77;;
3597;SDS011;1813;52.016;8.714;2023-04-06T03:34:26;15.93;;;11.63;;
3597;SDS011;1813;52.016;8.714;2023-04-06T03:37:00;18.47;;;12.20;;
3597;SDS011;1813;52.016;8.714;2023-04-06T03:39:35;17.47;;;12.20;;
3597;SDS011;1813;52.016;8.714;2023-04-06T03:42:11;19.20;;;12.73;;
3597;SDS011;1813;52.016;8.714;2023-04-06T03:44:53;17.37;;;12.83;;
3597;SDS011;1813;52.016;8.714;2023-04-06T03:47:29;17.83;;;12.90;;
3597;SDS011;1813;52.016;8.714;2023-04-06T03:50:08;20.03;;;12.77;;
3597;SDS011;1813;52.016;8.714;2023-04-06T03:52:43;18.50;;;11.80;;
3597;SDS011;1813;52.016;8.714;2023-04-06T03:55:17;18.07;;;12.57;;
3597;SDS011;1813;52.016;8.714;2023-04-06T03:57:51;19.00;;;13.03;;
3597;SDS011;1813;52.016;8.714;2023-04-06T04:00:25;16.23;;;12.37;;
3597;SDS011;1813;52.016;8.714;2023-04-06T04:03:03;21.90;;;13.77;;
3597;SDS011;1813;52.016;8.714;2023-04-06T04:05:36;18.40;;;12.43;;
3597;SDS011;1813;52.016;8.714;2023-04-06T04:08:11;19.30;;;11.60;;
3597;SDS011;1813;52.016;8.714;2023-04-06T04:10:45;15.97;;;11.47;;
3597;SDS011;1813;52.016;8.714;2023-04-06T04:13:19;16.93;;;12.00;;
3597;SDS011;1813;52.016;8.714;2023-04-06T04:15:55;17.30;;;11.90;;
3597;SDS011;1813;52.016;8.714;2023-04-06T04:18:32;20.70;;;13.00;;
3597;SDS011;1813;52.016;8.714;2023-04-06T04:21:07;17.00;;;12.50;;
3597;SDS011;1813;52.016;8.714;2023-04-06T04:23:41;17.97;;;12.93;;
3597;SDS011;1813;52.016;8.714;2023-04-06T04:26:15;17.27;;;13.30;;
3597;SDS011;1813;52.016;8.714;2023-04-06T04:28:50;18.30;;;13.40;;
3597;SDS011;1813;52.016;8.714;2023-04-06T04:31:24;19.57;;;14.10;;
3597;SDS011;1813;52.016;8.714;2023-04-06T04:34:05;20.20;;;13.97;;
3597;SDS011;1813;52.016;8.714;2023-04-06T04:36:39;24.83;;;14.77;;
3597;SDS011;1813;52.016;8.714;2023-04-06T04:39:18;21.57;;;14.77;;
3597;SDS011;1813;52.016;8.714;2023-04-06T04:42:01;21.50;;;14.23;;
3597;SDS011;1813;52.016;8.714;2023-04-06T04:44:37;19.70;;;13.57;;
3597;SDS011;1813;52.016;8.714;2023-04-06T04:47:11;23.93;;;12.50;;
3597;SDS011;1813;52.016;8.714;2023-04-06T04:49:52;18.47;;;12.97;;
3597;SDS011;1813;52.016;8.714;2023-04-06T04:52:28;17.90;;;12.40;;
3597;SDS011;1813;52.016;8.714;2023-04-06T04:55:14;20.17;;;14.20;;
3597;SDS011;1813;52.016;8.714;2023-04-06T04:57:51;21.93;;;13.30;;
3597;SDS011;1813;52.016;8.714;2023-04-06T05:00:31;20.60;;;13.13;;
3597;SDS011;1813;52.016;8.714;2023-04-06T05:03:05;20.57;;;14.40;;
3597;SDS011;1813;52.016;8.714;2023-04-06T05:05:46;20.47;;;13.63;;
3597;SDS011;1813;52.016;8.714;2023-04-06T05:08:21;23.10;;;14.13;;
3597;SDS011;1813;52.016;8.714;2023-04-06T05:10:55;20.43;;;14.30;;
3597;SDS011;1813;52.016;8.714;2023-04-06T05:13:31;26.87;;;14.60;;
3597;SDS011;1813;52.016;8.714;2023-04-06T05:16:11;22.90;;;13.83;;
3597;SDS011;1813;52.016;8.714;2023-04-06T05:18:45;27.53;;;14.63;;
3597;SDS011;1813;52.016;8.714;2023-04-06T05:21:23;20.47;;;13.60;;
3597;SDS011;1813;52.016;8.714;2023-04-06T05:24:06;23.77;;;13.30;;
3597;SDS011;1813;52.016;8.714;2023-04-06T05:26:41;23.33;;;14.00;;
3597;SDS011;1813;52.016;8.714;2023-04-06T05:29:23;23.03;;;14.23;;
3597;SDS011;1813;52.016;8.714;2023-04-06T05:31:57;23.60;;;14.13;;
3597;SDS011;1813;52.016;8.714;2023-04-06T05:34:31;24.00;;;15.03;;
3597;SDS011;1813;52.016;8.714;2023-04-06T05:37:12;25.00;;;14.70;;
3597;SDS011;1813;52.016;8.714;2023-04-06T05:39:48;21.17;;;14.83;;
3597;SDS011;1813;52.016;8.714;2023-04-06T05:42:22;24.40;;;14.43;;
3597;SDS011;1813;52.016;8.714;2023-04-06T05:44:59;26.60;;;14.37;;
3597;SDS011;1813;52.016;8.714;2023-04-06T05:47:34;22.40;;;14.60;;
3597;SDS011;1813;52.016;8.714;2023-04-06T05:50:19;25.40;;;15.10;;
3597;SDS011;1813;52.016;8.714;2023-04-06T05:52:57;22.03;;;14.30;;
3597;SDS011;1813;52.016;8.714;2023-04-06T05:55:37;20.87;;;14.73;;
3597;SDS011;1813;52.016;8.714;2023-04-06T05:58:16;20.03;;;14.13;;
3597;SDS011;1813;52.016;8.714;2023-04-06T06:00:55;21.30;;;13.90;;
3597;SDS011;1813;52.016;8.714;2023-04-06T06:03:33;25.47;;;15.20;;
3597;SDS011;1813;52.016;8.714;2023-04-06T06:06:07;25.67;;;14.97;;
3597;SDS011;1813;52.016;8.714;2023-04-06T06:08:59;24.60;;;15.50;;
3597;SDS011;1813;52.016;8.714;2023-04-06T06:11:37;25.47;;;15.77;;
3597;SDS011;1813;52.016;8.714;2023-04-06T06:14:12;24.07;;;15.67;;
3597;SDS011;1813;52.016;8.714;2023-04-06T06:16:47;24.90;;;14.53;;
3597;SDS011;1813;52.016;8.714;2023-04-06T06:19:21;22.63;;;15.07;;
3597;SDS011;1813;52.016;8.714;2023-04-06T06:21:59;22.83;;;14.60;;
3597;SDS011;1813;52.016;8.714;2023-04-06T06:24:36;28.63;;;15.20;;
3597;SDS011;1813;52.016;8.714;2023-04-06T06:27:10;21.23;;;15.13;;
3597;SDS011;1813;52.016;8.714;2023-04-06T06:29:44;24.63;;;15.43;;
3597;SDS011;1813;52.016;8.714;2023-04-06T06:32:18;22.40;;;15.37;;
3597;SDS011;1813;52.016;8.714;2023-04-06T06:34:55;25.63;;;16.10;;
3597;SDS011;1813;52.016;8.714;2023-04-06T06:37:29;22.33;;;14.73;;
3597;SDS011;1813;52.016;8.714;2023-04-06T06:40:08;22.37;;;14.70;;
3597;SDS011;1813;52.016;8.714;2023-04-06T06:42:44;20.67;;;14.10;;
3597;SDS011;1813;52.016;8.714;2023-04-06T06:45:28;23.70;;;14.97;;
3597;SDS011;1813;52.016;8.714;2023-04-06T06:48:02;18.43;;;14.07;;
3597;SDS011;1813;52.016;8.714;2023-04-06T06:50:36;20.77;;;14.07;;
3597;SDS011;1813;52.016;8.714;2023-04-06T06:53:10;24.60;;;15.63;;
3597;SDS011;1813;52.016;8.714;2023-04-06T06:55:47;21.17;;;14.33;;
3597;SDS011;1813;52.016;8.714;2023-04-06T06:58:21;24.10;;;14.60;;
3597;SDS011;1813;52.016;8.714;2023-04-06T07:00:55;25.13;;;14.77;;
3597;SDS011;1813;52.016;8.714;2023-04-06T07:03:32;19.50;;;13.90;;
3597;SDS011;1813;52.016;8.714;2023-04-06T07:06:06;25.20;;;14.33;;
3597;SDS011;1813;52.016;8.714;2023-04-06T07:08:40;20.43;;;14.07;;
3597;SDS011;1813;52.016;8.714;2023-04-06T07:11:16;22.20;;;14.93;;
3597;SDS011;1813;52.016;8.714;2023-04-06T07:13:51;23.87;;;14.13;;
3597;SDS011;1813;52.016;8.714;2023-04-06T07:16:25;22.50;;;13.67;;
3597;SDS011;1813;52.016;8.714;2023-04-06T07:18:59;19.33;;;13.03;;
3597;SDS011;1813;52.016;8.714;2023-04-06T07:21:33;22.37;;;13.77;;
3597;SDS011;1813;52.016;8.714;2023-04-06T07:24:07;19.40;;;13.53;;
3597;SDS011;1813;52.016;8.714;2023-04-06T07:26:44;18.80;;;13.27;;
3597;SDS011;1813;52.016;8.714;2023-04-06T07:29:18;25.30;;;13.10;;
3597;SDS011;1813;52.016;8.714;2023-04-06T07:31:53;19.83;;;12.37;;
3597;SDS011;1813;52.016;8.714;2023-04-06T07:34:27;17.43;;;12.07;;
3597;SDS011;1813;52.016;8.714;2023-04-06T07:37:01;16.90;;;12.50;;
3597;SDS011;1813;52.016;8.714;2023-04-06T07:39:36;17.03;;;12.00;;
3597;SDS011;1813;52.016;8.714;2023-04-06T07:42:13;17.67;;;11.97;;
3597;SDS011;1813;52.016;8.714;2023-04-06T07:44:48;15.87;;;11.60;;
3597;SDS011;1813;52.016;8.714;2023-04-06T07:47:22;17.53;;;11.63;;
3597;SDS011;1813;52.016;8.714;2023-04-06T07:49:56;22.40;;;11.70;;
3597;SDS011;1813;52.016;8.714;2023-04-06T07:52:31;17.60;;;10.70;;
3597;SDS011;1813;52.016;8.714;2023-04-06T07:55:05;16.70;;;10.60;;
3597;SDS011;1813;52.016;8.714;2023-04-06T07:57:43;23.73;;;10.83;;
3597;SDS011;1813;52.016;8.714;2023-04-06T08:00:18;21.00;;;12.07;;
3597;SDS011;1813;52.016;8.714;2023-04-06T08:02:52;18.37;;;11.27;;
3597;SDS011;1813;52.016;8.714;2023-04-06T08:05:26;17.23;;;11.40;;
3597;SDS011;1813;52.016;8.714;2023-04-06T08:08:00;15.13;;;10.97;;
3597;SDS011;1813;52.016;8.714;2023-04-06T08:10:34;18.13;;;11.83;;
3597;SDS011;1813;52.016;8.714;2023-04-06T08:13:10;15.20;;;11.20;;
3597;SDS011;1813;52.016;8.714;2023-04-06T08:15:44;21.13;;;11.30;;
3597;SDS011;1813;52.016;8.714;2023-04-06T08:18:18;15.70;;;11.50;;
3597;SDS011;1813;52.016;8.714;2023-04-06T08:20:52;21.03;;;11.53;;
3597;SDS011;1813;52.016;8.714;2023-04-06T08:23:27;21.00;;;12.20;;
3597;SDS011;1813;52.016;8.714;2023-04-06T08:26:01;15.50;;;11.67;;
3597;SDS011;1813;52.016;8.714;2023-04-06T08:28:38;17.93;;;11.77;;
3597;SDS011;1813;52.016;8.714;2023-04-06T08:31:12;16.50;;;11.50;;
3597;SDS011;1813;52.016;8.714;2023-04-06T08:33:46;18.60;;;11.90;;
3597;SDS011;1813;52.016;8.714;2023-04-06T08:36:20;15.27;;;10.87;;
3597;SDS011;1813;52.016;8.714;2023-04-06T08:38:53;15.00;;;10.10;;
3597;SDS011;1813;52.016;8.714;2023-04-06T08:41:27;14.90;;;10.97;;
3597;SDS011;1813;52.016;8.714;2023-04-06T08:44:05;16.30;;;10.90;;
3597;SDS011;1813;52.016;8.714;2023-04-06T08:46:38;15.00;;;10.90;;
3597;SDS011;1813;52.016;8.714;2023-04-06T08:49:12;15.97;;;10.73;;
3597;SDS011;1813;52.016;8.714;2023-04-06T08:51:49;14.50;;;10.10;;
3597;SDS011;1813;52.016;8.714;2023-04-06T08:54:24;16.83;;;9.80;;
3597;SDS011;1813;52.016;8.714;2023-04-06T08:56:57;14.27;;;10.40;;
3597;SDS011;1813;52.016;8.714;2023-04-06T08:59:34;14.20;;;10.43;;
3597;SDS011;1813;52.016;8.714;2023-04-06T09:02:10;14.17;;;10.20;;
3597;SDS011;1813;52.016;8.714;2023-04-06T09:04:52;15.83;;;9.80;;
3597;SDS011;1813;52.016;8.714;2023-04-06T09:07:26;17.67;;;10.93;;
3597;SDS011;1813;52.016;8.714;2023-04-06T09:10:01;17.27;;;10.97;;
3597;SDS011;1813;52.016;8.714;2023-04-06T09:12:35;16.13;;;11.07;;
3597;SDS011;1813;52.016;8.714;2023-04-06T09:15:19;14.23;;;10.87;;
3597;SDS011;1813;52.016;8.714;2023-04-06T09:17:55;15.00;;;10.73;;
3597;SDS011;1813;52.016;8.714;2023-04-06T09:20:29;16.77;;;10.17;;
3597;SDS011;1813;52.016;8.714;2023-04-06T09:23:02;22.73;;;11.93;;
3597;SDS011;1813;52.016;8.714;2023-04-06T09:25:36;15.93;;;10.50;;
3597;SDS011;1813;52.016;8.714;2023-04-06T09:28:10;18.47;;;10.60;;
3597;SDS011;1813;52.016;8.714;2023-04-06T09:30:50;14.73;;;10.03;;
3597;SDS011;1813;52.016;8.714;2023-04-06T09:33:24;13.00;;;9.60;;
3597;SDS011;1813;52.016;8.714;2023-04-06T09:35:57;16.33;;;10.07;;
3597;SDS011;1813;52.016;8.714;2023-04-06T09:38:31;14.60;;;9.93;;
3597;SDS011;1813;52.016;8.714;2023-04-06T09:41:05;12.77;;;9.70;;
3597;SDS011;1813;52.016;8.714;2023-04-06T09:43:39;16.73;;;10.30;;
3597;SDS011;1813;52.016;8.714;2023-04-06T09:46:16;15.30;;;10.43;;
3597;SDS011;1813;52.016;8.714;2023-04-06T09:48:53;14.10;;;10.00;;
3597;SDS011;1813;52.016;8.714;2023-04-06T09:51:27;14.13;;;10.00;;
3597;SDS011;1813;52.016;8.714;2023-04-06T09:54:03;17.47;;;11.50;;
3597;SDS011;1813;52.016;8.714;2023-04-06T09:56:41;18.83;;;10.80;;
3597;SDS011;1813;52.016;8.714;2023-04-06T09:59:21;19.80;;;11.70;;
3597;SDS011;1813;52.016;8.714;2023-04-06T10:02:06;15.03;;;11.37;;
3597;SDS011;1813;52.016;8.714;2023-04-06T10:04:49;15.27;;;11.20;;
3597;SDS011;1813;52.016;8.714;2023-04-06T10:07:27;16.63;;;10.73;;
3597;SDS011;1813;52.016;8.714;2023-04-06T10:10:02;20.40;;;11.90;;
3597;SDS011;1813;52.016;8.714;2023-04-06T10:12:37;18.67;;;11.60;;
3597;SDS011;1813;52.016;8.714;2023-04-06T10:15:11;16.57;;;11.47;;
3597;SDS011;1813;52.016;8.714;2023-04-06T10:17:48;18.13;;;11.70;;
3597;SDS011;1813;52.016;8.714;2023-04-06T10:20:23;21.40;;;12.20;;
3597;SDS011;1813;52.016;8.714;2023-04-06T10:23:01;19.30;;;12.90;;
3597;SDS011;1813;52.016;8.714;2023-04-06T10:25:51;21.97;;;11.73;;
3597;SDS011;1813;52.016;8.714;2023-04-06T10:28:30;17.87;;;11.80;;
3597;SDS011;1813;52.016;8.714;2023-04-06T10:31:06;16.43;;;12.00;;
3597;SDS011;1813;52.016;8.714;2023-04-06T10:33:52;19.43;;;12.87;;
3597;SDS011;1813;52.016;8.714;2023-04-06T10:36:28;16.90;;;11.57;;
3597;SDS011;1813;52.016;8.714;2023-04-06T10:39:05;17.53;;;11.13;;
3597;SDS011;1813;52.016;8.714;2023-04-06T10:41:40;16.97;;;12.10;;
3597;SDS011;1813;52.016;8.714;2023-04-06T10:44:17;18.50;;;12.20;;
3597;SDS011;1813;52.016;8.714;2023-04-06T10:46:53;17.90;;;12.07;;
3597;SDS011;1813;52.016;8.714;2023-04-06T10:49:33;21.03;;;12.37;;
3597;SDS011;1813;52.016;8.714;2023-04-06T10:52:07;17.50;;;12.60;;
3597;SDS011;1813;52.016;8.714;2023-04-06T10:54:42;18.30;;;11.83;;
3597;SDS011;1813;52.016;8.714;2023-04-06T10:57:17;18.97;;;12.43;;
3597;SDS011;1813;52.016;8.714;2023-04-06T11:00:03;22.67;;;12.30;;
3597;SDS011;1813;52.016;8.714;2023-04-06T11:02:38;16.40;;;11.70;;
3597;SDS011;1813;52.016;8.714;2023-04-06T11:05:14;17.53;;;12.43;;
3597;SDS011;1813;52.016;8.714;2023-04-06T11:07:48;15.90;;;11.97;;
3597;SDS011;1813;52.016;8.714;2023-04-06T11:10:22;18.27;;;12.37;;
3597;SDS011;1813;52.016;8.714;2023-04-06T11:12:56;18.63;;;12.73;;
3597;SDS011;1813;52.016;8.714;2023-04-06T11:15:33;17.70;;;12.10;;
3597;SDS011;1813;52.016;8.714;2023-04-06T11:18:07;17.90;;;12.30;;
3597;SDS011;1813;52.016;8.714;2023-04-06T11:20:49;18.10;;;12.60;;
3597;SDS011;1813;52.016;8.714;2023-04-06T11:23:23;17.60;;;12.27;;
3597;SDS011;1813;52.016;8.714;2023-04-06T11:25:57;17.57;;;11.90;;
3597;SDS011;1813;52.016;8.714;2023-04-06T11:28:31;15.73;;;11.50;;
3597;SDS011;1813;52.016;8.714;2023-04-06T11:31:05;15.50;;;11.53;;
3597;SDS011;1813;52.016;8.714;2023-04-06T11:33:39;17.60;;;12.70;;
3597;SDS011;1813;52.016;8.714;2023-04-06T11:36:16;18.20;;;12.23;;
3597;SDS011;1813;52.016;8.714;2023-04-06T11:38:50;17.40;;;11.47;;
3597;SDS011;1813;52.016;8.714;2023-04-06T11:41:23;17.33;;;11.93;;
3597;SDS011;1813;52.016;8.714;2023-04-06T11:44:01;15.70;;;12.00;;
3597;SDS011;1813;52.016;8.714;2023-04-06T11:46:51;19.50;;;12.40;;
3597;SDS011;1813;52.016;8.714;2023-04-06T11:49:36;16.30;;;12.40;;
3597;SDS011;1813;52.016;8.714;2023-04-06T11:52:21;20.53;;;12.60;;
3597;SDS011;1813;52.016;8.714;2023-04-06T11:54:56;16.93;;;12.37;;
3597;SDS011;1813;52.016;8.714;2023-04-06T11:57:30;20.70;;;13.20;;
3597;SDS011;1813;52.016;8.714;2023-04-06T12:00:05;18.40;;;13.10;;
3597;SDS011;1813;52.016;8.714;2023-04-06T12:02:40;21.13;;;13.13;;
3597;SDS011;1813;52.016;8.714;2023-04-06T12:05:19;19.17;;;12.57;;
3597;SDS011;1813;52.016;8.714;2023-04-06T12:07:56;19.73;;;12.80;;
3597;SDS011;1813;52.016;8.714;2023-04-06T12:10:30;18.57;;;12.40;;
3597;SDS011;1813;52.016;8.714;2023-04-06T12:13:04;15.70;;;12.00;;
3597;SDS011;1813;52.016;8.714;2023-04-06T12:15:38;16.90;;;12.40;;
3597;SDS011;1813;52.016;8.714;2023-04-06T12:18:12;16.33;;;12.40;;
3597;SDS011;1813;52.016;8.714;2023-04-06T12:20:46;18.90;;;12.97;;
3597;SDS011;1813;52.016;8.714;2023-04-06T12:23:23;19.20;;;12.80;;
3597;SDS011;1813;52.016;8.714;2023-04-06T12:25:56;17.63;;;13.40;;
3597;SDS011;1813;52.016;8.714;2023-04-06T12:28:32;17.63;;;12.50;;
3597;SDS011;1813;52.016;8.714;2023-04-06T12:31:06;19.17;;;13.40;;
3597;SDS011;1813;52.016;8.714;2023-04-06T12:33:39;18.10;;;13.30;;
3597;SDS011;1813;52.016;8.714;2023-04-06T12:36:15;17.80;;;12.93;;
3597;SDS011;1813;52.016;8.714;2023-04-06T12:38:54;19.00;;;13.63;;
3597;SDS011;1813;52.016;8.714;2023-04-06T12:41:28;20.67;;;13.57;;
3597;SDS011;1813;52.016;8.714;2023-04-06T12:44:03;17.60;;;12.50;;
3597;SDS011;1813;52.016;8.714;2023-04-06T12:46:37;20.40;;;12.20;;
3597;SDS011;1813;52.016;8.714;2023-04-06T12:49:12;16.20;;;11.80;;
3597;SDS011;1813;52.016;8.714;2023-04-06T12:51:47;20.07;;;12.10;;
3597;SDS011;1813;52.016;8.714;2023-04-06T12:54:23;16.87;;;11.80;;
3597;SDS011;1813;52.016;8.714;2023-04-06T12:56:58;17.90;;;11.37;;
3597;SDS011;1813;52.016;8.714;2023-04-06T12:59:32;16.33;;;11.77;;
3597;SDS011;1813;52.016;8.714;2023-04-06T13:02:07;15.80;;;11.90;;
3597;SDS011;1813;52.016;8.714;2023-04-06T13:04:42;20.63;;;12.27;;
3597;SDS011;1813;52.016;8.714;2023-04-06T13:07:16;16.30;;;11.47;;
3597;SDS011;1813;52.016;8.714;2023-04-06T13:09:53;18.10;;;10.80;;
3597;SDS011;1813;52.016;8.714;2023-04-06T13:12:27;15.37;;;11.53;;
3597;SDS011;1813;52.016;8.714;2023-04-06T13:15:01;15.03;;;10.80;;
3597;SDS011;1813;52.016;8.714;2023-04-06T13:17:35;15.20;;;10.50;;
3597;SDS011;1813;52.016;8.714;2023-04-06T13:20:09;13.57;;;9.00;;
3597;SDS011;1813;52.016;8.714;2023-04-06T13:22:44;12.80;;;7.87;;
3597;SDS011;1813;52.016;8.714;2023-04-06T13:25:21;11.27;;;8.20;;
3597;SDS011;1813;52.016;8.714;2023-04-06T13:27:55;15.80;;;9.13;;
3597;SDS011;1813;52.016;8.714;2023-04-06T13:30:29;19.03;;;9.80;;
3597;SDS011;1813;52.016;8.714;2023-04-06T13:33:03;12.27;;;9.27;;
3597;SDS011;1813;52.016;8.714;2023-04-06T13:35:37;14.50;;;9.73;;
3597;SDS011;1813;52.016;8.714;2023-04-06T13:38:12;15.37;;;9.87;;
3597;SDS011;1813;52.016;8.714;2023-04-06T13:40:49;15.13;;;9.80;;
3597;SDS011;1813;52.016;8.714;2023-04-06T13:43:23;18.57;;;10.90;;
3597;SDS011;1813;52.016;8.714;2023-04-06T13:45:57;15.37;;;10.77;;
3597;SDS011;1813;52.016;8.714;2023-04-06T13:48:31;18.47;;;11.00;;
3597;SDS011;1813;52.016;8.714;2023-04-06T13:51:08;15.83;;;11.10;;
3597;SDS011;1813;52.016;8.714;2023-04-06T13:53:43;17.80;;;11.70;;
3597;SDS011;1813;52.016;8.714;2023-04-06T13:56:19;21.37;;;11.47;;
3597;SDS011;1813;52.016;8.714;2023-04-06T13:58:53;21.90;;;12.33;;
3597;SDS011;1813;52.016;8.714;2023-04-06T14:01:29;18.80;;;11.57;;
3597;SDS011;1813;52.016;8.714;2023-04-06T14:04:02;17.73;;;11.97;;
3597;SDS011;1813;52.016;8.714;2023-04-06T14:06:37;16.87;;;11.70;;
3597;SDS011;1813;52.016;8.714;2023-04-06T14:09:11;16.50;;;11.50;;
3597;SDS011;1813;52.016;8.714;2023-04-06T14:11:47;17.77;;;11.07;;
3597;SDS011;1813;52.016;8.714;2023-04-06T14:14:21;18.23;;;12.83;;
3597;SDS011;1813;52.016;8.714;2023-04-06T14:16:56;19.40;;;11.80;;
3597;SDS011;1813;52.016;8.714;2023-04-06T14:19:30;21.70;;;12.90;;
3597;SDS011;1813;52.016;8.714;2023-04-06T14:22:04;21.73;;;13.47;;
3597;SDS011;1813;52.016;8.714;2023-04-06T14:24:39;24.03;;;12.77;;
3597;SDS011;1813;52.016;8.714;2023-04-06T14:27:15;18.30;;;12.40;;
3597;SDS011;1813;52.016;8.714;2023-04-06T14:29:49;23.70;;;13.50;;
3597;SDS011;1813;52.016;8.714;2023-04-06T14:32:23;20.97;;;13.57;;
3597;SDS011;1813;52.016;8.714;2023-04-06T14:34:57;21.80;;;13.60;;
3597;SDS011;1813;52.016;8.714;2023-04-06T14:37:31;21.77;;;13.90;;
3597;SDS011;1813;52.016;8.714;2023-04-06T14:40:06;20.47;;;13.93;;
3597;SDS011;1813;52.016;8.714;2023-04-06T14:42:43;20.47;;;13.77;;
3597;SDS011;1813;52.016;8.714;2023-04-06T14:45:17;21.93;;;15.30;;
3597;SDS011;1813;52.016;8.714;2023-04-06T14:47:52;25.90;;;15.60;;
3597;SDS011;1813;52.016;8.714;2023-04-06T14:50:25;24.60;;;15.30;;
3597;SDS011;1813;52.016;8.714;2023-04-06T14:52:59;24.27;;;15.20;;
3597;SDS011;1813;52.016;8.714;2023-04-06T14:55:38;28.13;;;16.87;;
3597;SDS011;1813;52.016;8.714;2023-04-06T14:58:15;24.50;;;15.53;;
3597;SDS011;1813;52.016;8.714;2023-04-06T15:00:49;27.27;;;15.87;;
3597;SDS011;1813;52.016;8.714;2023-04-06T15:03:28;28.23;;;16.37;;
3597;SDS011;1813;52.016;8.714;2023-04-06T15:06:02;28.83;;;16.20;;
3597;SDS011;1813;52.016;8.714;2023-04-06T15:08:37;28.77;;;16.73;;
3597;SDS011;1813;52.016;8.714;2023-04-06T15:11:12;28.67;;;16.93;;
3597;SDS011;1813;52.016;8.714;2023-04-06T15:13:48;30.80;;;16.23;;
3597;SDS011;1813;52.016;8.714;2023-04-06T15:16:22;24.83;;;15.60;;
3597;SDS011;1813;52.016;8.714;2023-04-06T15:18:56;23.27;;;14.87;;
3597;SDS011;1813;52.016;8.714;2023-04-06T15:21:30;27.93;;;17.07;;
3597;SDS011;1813;52.016;8.714;2023-04-06T15:24:04;24.73;;;15.60;;
3597;SDS011;1813;52.016;8.714;2023-04-06T15:26:39;23.70;;;15.07;;
3597;SDS011;1813;52.016;8.714;2023-04-06T15:29:15;25.83;;;15.63;;
3597;SDS011;1813;52.016;8.714;2023-04-06T15:31:49;27.40;;;15.10;;
3597;SDS011;1813;52.016;8.714;2023-04-06T15:34:23;26.40;;;15.37;;
3597;SDS011;1813;52.016;8.714;2023-04-06T15:37:00;26.67;;;15.20;;
3597;SDS011;1813;52.016;8.714;2023-04-06T15:39:35;23.50;;;15.13;;
3597;SDS011;1813;52.016;8.714;2023-04-06T15:42:09;22.33;;;14.50;;